Time;durP1;ratioP1;P1;durP2;ratioP2;P2;SDS_P1;SDS_P2;PMS_P1;PMS_P2;Temp;Humidity;BMP_temperature;BMP_pressure;BME280_temperature;BME280_humidity;BME280_pressure;Samples;Min_cycle;Max_cycle;Signal;HPM_P1;HPM_P2
2022/10/06 00:01:15;;;;;;;5.32;4.60;;;12.50;99.90;;;;;;5073691;28;20290;-94
2022/10/06 00:03:44;;;;;;;8.65;5.88;;;12.50;99.90;;;;;;5072818;28;20213;-92
2022/10/06 00:06:16;;;;;;;5.40;4.90;;;12.40;99.90;;;;;;5074490;28;20292;-93
2022/10/06 00:08:46;;;;;;;6.00;5.20;;;12.40;99.90;;;;;;5075172;28;20217;-94
2022/10/06 00:11:16;;;;;;;7.15;4.90;;;12.40;99.90;;;;;;5074388;28;20261;-92
2022/10/06 00:13:50;;;;;;;4.70;4.30;;;12.40;99.90;;;;;;5074855;28;20204;-92
2022/10/06 00:16:24;;;;;;;5.75;4.60;;;12.40;99.90;;;;;;5073522;28;20295;-92
2022/10/06 00:18:52;;;;;;;4.53;4.13;;;12.40;99.90;;;;;;5073206;28;20197;-93
2022/10/06 00:21:20;;;;;;;5.15;4.57;;;12.30;99.90;;;;;;5073707;28;20236;-93
2022/10/06 00:23:49;;;;;;;5.25;4.75;;;12.30;99.90;;;;;;5073777;28;20270;-88
2022/10/06 00:26:17;;;;;;;7.80;4.65;;;12.30;99.90;;;;;;5073255;28;20213;-88
2022/10/06 00:28:49;;;;;;;5.15;4.63;;;12.30;99.90;;;;;;5073651;28;20202;-88
2022/10/06 00:31:18;;;;;;;6.15;5.15;;;12.40;99.90;;;;;;5073483;28;20215;-88
2022/10/06 00:33:48;;;;;;;5.30;4.80;;;12.30;99.90;;;;;;5072647;28;20266;-88
2022/10/06 00:36:17;;;;;;;7.25;5.43;;;12.30;99.90;;;;;;5072475;28;20204;-88
2022/10/06 00:38:47;;;;;;;4.10;3.80;;;12.20;99.90;;;;;;5072546;28;20251;-88
2022/10/06 00:41:17;;;;;;;6.00;4.82;;;12.20;99.90;;;;;;5072470;28;20209;-88
2022/10/06 00:43:52;;;;;;;5.35;4.82;;;12.30;99.90;;;;;;5072516;28;20216;-88
2022/10/06 00:46:35;;;;;;;7.38;4.93;;;12.20;99.90;;;;;;5072194;28;20225;-88
2022/10/06 00:49:11;;;;;;;5.68;5.07;;;12.20;99.90;;;;;;5072388;28;20221;-88
2022/10/06 00:51:43;;;;;;;4.82;4.43;;;12.20;99.90;;;;;;5072479;28;20205;-88
2022/10/06 00:54:13;;;;;;;4.93;4.53;;;12.10;99.90;;;;;;5072651;28;20208;-89
2022/10/06 00:56:41;;;;;;;5.65;5.10;;;12.20;99.90;;;;;;5072416;28;20224;-88
2022/10/06 00:59:13;;;;;;;14.73;4.28;;;12.20;99.90;;;;;;5072566;28;20201;-88
2022/10/06 01:01:52;;;;;;;4.68;4.28;;;12.10;99.90;;;;;;5072707;28;20225;-89
2022/10/06 01:04:23;;;;;;;4.78;4.38;;;12.10;99.90;;;;;;5076391;28;20209;-89
2022/10/06 01:06:54;;;;;;;4.95;4.55;;;12.10;99.90;;;;;;5076259;28;20236;-90
2022/10/06 01:09:23;;;;;;;5.28;4.78;;;12.10;99.90;;;;;;5075961;28;20232;-89
2022/10/06 01:11:55;;;;;;;6.93;5.80;;;12.10;99.90;;;;;;5076258;28;20200;-88
2022/10/06 01:14:27;;;;;;;6.03;4.85;;;12.10;99.90;;;;;;5077380;28;20205;-88
2022/10/06 01:16:59;;;;;;;5.57;5.07;;;12.10;99.90;;;;;;5075678;28;20229;-88
2022/10/06 01:19:39;;;;;;;6.05;5.20;;;12.10;99.90;;;;;;5076037;28;20216;-88
2022/10/06 01:22:16;;;;;;;6.38;5.15;;;12.10;99.90;;;;;;5076312;28;20251;-89
2022/10/06 01:24:49;;;;;;;5.03;4.60;;;12.10;99.90;;;;;;5075618;28;20211;-88
2022/10/06 01:27:18;;;;;;;6.15;5.55;;;12.00;99.90;;;;;;5076104;28;20227;-88
2022/10/06 01:29:50;;;;;;;10.23;5.60;;;12.00;99.90;;;;;;5075430;28;20226;-88
2022/10/06 01:32:18;;;;;;;6.20;5.57;;;12.00;99.90;;;;;;5075974;28;20251;-89
2022/10/06 01:34:53;;;;;;;6.43;5.20;;;12.00;99.90;;;;;;5075826;28;20227;-88
2022/10/06 01:37:21;;;;;;;6.90;5.47;;;12.00;99.90;;;;;;5075680;28;20243;-88
2022/10/06 01:39:51;;;;;;;5.00;4.60;;;11.90;99.90;;;;;;5075768;28;20215;-88
2022/10/06 01:42:25;;;;;;;4.97;4.53;;;11.90;99.90;;;;;;5075407;28;20240;-88
2022/10/06 01:44:55;;;;;;;5.68;5.18;;;11.80;99.90;;;;;;5075528;28;20215;-88
2022/10/06 01:47:24;;;;;;;6.38;4.53;;;11.80;99.90;;;;;;5075686;28;20336;-88
2022/10/06 01:49:52;;;;;;;8.45;5.68;;;11.80;99.90;;;;;;5074982;28;20223;-88
2022/10/06 01:52:21;;;;;;;4.95;4.53;;;11.80;99.90;;;;;;5075690;28;20220;-88
2022/10/06 01:54:50;;;;;;;5.60;5.03;;;11.70;99.90;;;;;;5075418;28;20205;-88
2022/10/06 01:57:20;;;;;;;5.03;4.63;;;11.70;99.90;;;;;;5075499;28;20256;-88
2022/10/06 01:59:48;;;;;;;6.00;4.40;;;11.70;99.90;;;;;;5075052;28;20288;-88
2022/10/06 02:02:21;;;;;;;4.93;4.53;;;11.70;99.90;;;;;;5075194;28;20211;-89
2022/10/06 02:04:50;;;;;;;7.55;4.82;;;11.70;99.90;;;;;;5075349;28;20205;-88
2022/10/06 02:07:18;;;;;;;4.95;4.45;;;11.70;99.90;;;;;;5075105;28;20240;-88
2022/10/06 02:09:46;;;;;;;5.38;4.90;;;11.60;99.90;;;;;;5074900;28;20221;-89
2022/10/06 02:12:23;;;;;;;7.65;5.65;;;11.70;99.90;;;;;;5075357;28;20243;-87
2022/10/06 02:14:51;;;;;;;5.20;4.70;;;11.60;99.90;;;;;;5074491;28;20212;-87
2022/10/06 02:17:21;;;;;;;6.43;5.03;;;11.60;99.90;;;;;;5075041;28;20229;-87
2022/10/06 02:19:50;;;;;;;5.88;5.28;;;11.60;99.90;;;;;;5074791;28;20197;-88
2022/10/06 02:22:18;;;;;;;5.68;4.97;;;11.60;99.90;;;;;;5075253;28;20211;-88
2022/10/06 02:24:46;;;;;;;7.25;5.25;;;11.50;99.90;;;;;;5074940;28;20223;-88
2022/10/06 02:27:14;;;;;;;6.90;5.32;;;11.50;99.90;;;;;;5074681;28;20225;-88
2022/10/06 02:29:44;;;;;;;5.82;5.05;;;11.50;99.90;;;;;;5074798;28;20215;-91
2022/10/06 02:32:13;;;;;;;4.78;4.38;;;11.40;99.90;;;;;;5074987;28;20216;-91
2022/10/06 02:34:41;;;;;;;7.72;4.82;;;11.40;99.90;;;;;;5076289;28;20201;-92
2022/10/06 02:37:09;;;;;;;5.22;4.72;;;11.40;99.90;;;;;;5076669;28;20235;-93
2022/10/06 02:39:38;;;;;;;4.88;4.40;;;11.40;99.90;;;;;;5075232;28;20207;-92
2022/10/06 02:42:06;;;;;;;4.72;4.32;;;11.40;99.90;;;;;;5075618;28;20197;-92
2022/10/06 02:44:35;;;;;;;4.78;4.38;;;11.40;99.90;;;;;;5075338;28;20211;-92
2022/10/06 02:47:05;;;;;;;4.72;4.32;;;11.40;99.90;;;;;;5074659;28;20227;-92
2022/10/06 02:49:33;;;;;;;5.13;4.63;;;11.40;99.90;;;;;;5075213;28;20215;-92
2022/10/06 02:52:01;;;;;;;5.22;4.72;;;11.40;99.90;;;;;;5075186;28;20232;-93
2022/10/06 02:54:30;;;;;;;5.35;4.82;;;11.40;99.90;;;;;;5075686;28;20208;-93
2022/10/06 02:56:58;;;;;;;5.38;4.78;;;11.40;99.90;;;;;;5075165;28;20228;-92
2022/10/06 02:59:26;;;;;;;5.57;5.07;;;11.30;99.90;;;;;;5075308;28;20240;-94
2022/10/06 03:01:55;;;;;;;7.53;4.75;;;11.30;99.90;;;;;;5075013;28;20201;-93
2022/10/06 03:04:31;;;;;;;6.20;5.25;;;11.30;99.90;;;;;;5074761;28;20209;-92
2022/10/06 03:06:59;;;;;;;5.10;4.60;;;11.30;99.90;;;;;;5074931;28;20221;-92
2022/10/06 03:09:27;;;;;;;5.97;5.35;;;11.30;99.90;;;;;;5074577;28;20201;-92
2022/10/06 03:11:56;;;;;;;5.80;4.97;;;11.30;99.90;;;;;;5074312;28;20228;-92
2022/10/06 03:14:27;;;;;;;4.60;4.20;;;11.20;99.90;;;;;;5074314;28;20203;-93
2022/10/06 03:17:03;;;;;;;5.10;4.70;;;11.30;99.90;;;;;;5074402;28;20286;-93
2022/10/06 03:19:33;;;;;;;6.82;5.75;;;11.20;99.90;;;;;;5074562;28;20211;-92
2022/10/06 03:22:02;;;;;;;5.32;4.82;;;11.20;99.90;;;;;;5074705;28;20299;-93
2022/10/06 03:24:30;;;;;;;5.68;5.05;;;11.20;99.90;;;;;;5074540;28;20292;-92
2022/10/06 03:26:58;;;;;;;12.10;4.82;;;11.20;99.90;;;;;;5073364;28;20235;-92
2022/10/06 03:29:27;;;;;;;5.22;4.60;;;11.20;99.90;;;;;;5073810;28;20211;-91
2022/10/06 03:31:56;;;;;;;6.75;5.07;;;11.10;99.90;;;;;;5074076;28;20224;-91
2022/10/06 03:34:24;;;;;;;4.57;4.18;;;11.10;99.90;;;;;;5074733;28;20201;-92
2022/10/06 03:36:54;;;;;;;5.28;4.78;;;11.10;99.90;;;;;;5073974;28;20274;-91
2022/10/06 03:39:22;;;;;;;7.78;4.60;;;11.10;99.90;;;;;;5074278;28;20209;-93
2022/10/06 03:41:51;;;;;;;7.95;4.50;;;11.10;99.90;;;;;;5074593;28;20201;-92
2022/10/06 03:44:20;;;;;;;6.40;4.90;;;11.00;99.90;;;;;;5074385;28;20209;-92
2022/10/06 03:46:53;;;;;;;6.43;4.70;;;11.00;99.90;;;;;;5074111;28;20217;-92
2022/10/06 03:49:23;;;;;;;7.32;4.78;;;11.00;99.90;;;;;;5073563;28;20297;-92
2022/10/06 03:51:53;;;;;;;4.93;4.57;;;11.00;99.90;;;;;;5073797;28;20237;-92
2022/10/06 03:54:23;;;;;;;4.82;4.40;;;10.90;99.90;;;;;;5073894;28;20205;-91
2022/10/06 03:56:53;;;;;;;5.65;5.15;;;11.00;99.90;;;;;;5078162;28;20232;-93
2022/10/06 03:59:21;;;;;;;5.53;5.03;;;11.00;99.90;;;;;;5083881;28;20269;-92
2022/10/06 04:01:51;;;;;;;7.95;4.90;;;11.00;99.90;;;;;;5087524;28;20296;-92
2022/10/06 04:04:20;;;;;;;5.93;5.32;;;10.90;99.90;;;;;;5073237;28;20219;-88
2022/10/06 04:06:48;;;;;;;5.60;5.13;;;11.00;99.90;;;;;;5072843;28;20221;-88
2022/10/06 04:09:17;;;;;;;6.88;5.15;;;10.90;99.90;;;;;;5072617;28;20212;-88
2022/10/06 04:11:47;;;;;;;6.43;5.05;;;10.90;99.90;;;;;;5072650;28;20228;-88
2022/10/06 04:14:16;;;;;;;5.32;4.93;;;10.90;99.90;;;;;;5073201;28;20212;-87
2022/10/06 04:16:50;;;;;;;5.18;4.75;;;10.90;99.90;;;;;;5072524;28;20221;-88
2022/10/06 04:19:21;;;;;;;5.13;4.72;;;10.90;99.90;;;;;;5072655;28;20204;-88
2022/10/06 04:21:49;;;;;;;7.18;5.22;;;10.80;99.90;;;;;;5072759;28;20212;-87
2022/10/06 04:24:17;;;;;;;6.28;5.00;;;10.90;99.90;;;;;;5072698;28;20201;-88
2022/10/06 04:26:48;;;;;;;6.75;5.35;;;10.80;99.90;;;;;;5073148;28;20223;-87
2022/10/06 04:29:17;;;;;;;5.70;5.15;;;10.80;99.90;;;;;;5072722;28;20211;-88
2022/10/06 04:31:45;;;;;;;6.30;5.55;;;10.80;99.90;;;;;;5072435;28;20249;-88
2022/10/06 04:34:14;;;;;;;5.43;4.93;;;10.80;99.90;;;;;;5072428;28;20253;-88
2022/10/06 04:36:43;;;;;;;5.18;4.68;;;10.80;99.90;;;;;;5072658;28;20236;-88
2022/10/06 04:39:14;;;;;;;9.88;5.78;;;10.80;99.90;;;;;;5072207;28;20205;-87
2022/10/06 04:41:45;;;;;;;7.45;6.22;;;10.70;99.90;;;;;;5072848;28;20201;-88
2022/10/06 04:44:15;;;;;;;6.50;5.85;;;10.70;99.90;;;;;;5072642;28;20204;-88
2022/10/06 04:46:43;;;;;;;5.53;5.03;;;10.70;99.90;;;;;;5072515;28;20227;-88
2022/10/06 04:49:13;;;;;;;5.10;4.70;;;10.70;99.90;;;;;;5072222;28;20212;-88
2022/10/06 04:51:51;;;;;;;5.97;5.40;;;10.60;99.90;;;;;;5072730;28;20310;-88
2022/10/06 04:54:19;;;;;;;6.40;4.85;;;10.70;99.90;;;;;;5072568;28;20208;-88
2022/10/06 04:56:49;;;;;;;5.53;5.03;;;10.70;99.90;;;;;;5072365;28;20312;-88
2022/10/06 04:59:19;;;;;;;5.38;4.88;;;10.70;99.90;;;;;;5072727;28;20205;-88
2022/10/06 05:01:48;;;;;;;5.20;4.80;;;10.60;99.90;;;;;;5072147;28;20197;-88
2022/10/06 05:04:16;;;;;;;6.20;5.60;;;10.60;99.90;;;;;;5072390;28;20197;-88
2022/10/06 05:06:44;;;;;;;5.68;4.97;;;10.60;99.90;;;;;;5072678;28;20255;-88
2022/10/06 05:09:14;;;;;;;5.85;5.30;;;10.70;99.90;;;;;;5072344;28;20205;-88
2022/10/06 05:11:43;;;;;;;6.28;5.60;;;10.70;99.90;;;;;;5071967;28;20213;-88
2022/10/06 05:14:11;;;;;;;6.45;5.18;;;10.70;99.90;;;;;;5072532;28;20212;-88
2022/10/06 05:16:41;;;;;;;6.57;5.97;;;10.70;99.90;;;;;;5072410;28;20239;-88
2022/10/06 05:19:10;;;;;;;5.32;4.78;;;10.80;99.90;;;;;;5072423;28;20201;-88
2022/10/06 05:21:38;;;;;;;6.40;5.80;;;10.70;99.90;;;;;;5072405;28;20202;-88
2022/10/06 05:24:06;;;;;;;6.78;6.15;;;10.80;99.90;;;;;;5071936;28;20212;-88
2022/10/06 05:26:36;;;;;;;7.80;6.30;;;10.80;99.90;;;;;;5070867;28;20228;-87
2022/10/06 05:29:04;;;;;;;6.80;6.20;;;10.80;99.90;;;;;;5072153;28;20215;-87
2022/10/06 05:31:37;;;;;;;6.65;5.60;;;10.90;99.90;;;;;;5072124;28;20206;-88
2022/10/06 05:34:12;;;;;;;6.63;6.00;;;10.90;99.90;;;;;;5072180;28;20239;-87
2022/10/06 05:36:40;;;;;;;8.40;6.93;;;10.90;99.90;;;;;;5071997;28;20280;-87
2022/10/06 05:39:08;;;;;;;7.70;6.90;;;10.90;99.90;;;;;;5072043;28;20208;-88
2022/10/06 05:41:37;;;;;;;6.30;5.78;;;11.00;99.90;;;;;;5072114;28;20201;-87
2022/10/06 05:44:05;;;;;;;6.80;6.20;;;11.00;99.90;;;;;;5071921;28;20208;-87
2022/10/06 05:46:34;;;;;;;6.50;5.90;;;11.00;99.90;;;;;;5072150;28;20233;-87
2022/10/06 05:49:03;;;;;;;6.20;5.60;;;11.10;99.90;;;;;;5071698;28;20209;-87
2022/10/06 05:51:34;;;;;;;4.63;4.22;;;11.10;99.90;;;;;;5075354;28;20233;-87
2022/10/06 05:54:03;;;;;;;9.10;5.85;;;11.20;99.90;;;;;;5075630;28;20208;-87
2022/10/06 05:56:33;;;;;;;5.88;5.28;;;11.30;99.90;;;;;;5075522;28;20236;-87
2022/10/06 05:59:02;;;;;;;8.23;6.18;;;11.40;99.90;;;;;;5075598;28;20296;-87
2022/10/06 06:01:43;;;;;;;6.88;5.50;;;11.50;99.90;;;;;;5075335;28;20212;-87
2022/10/06 06:04:13;;;;;;;7.65;6.13;;;11.60;99.90;;;;;;5075487;28;20211;-87
2022/10/06 06:06:44;;;;;;;5.55;5.03;;;11.70;99.90;;;;;;5075186;28;20225;-87
2022/10/06 06:09:15;;;;;;;8.50;6.82;;;11.70;99.90;;;;;;5075081;28;20202;-85
2022/10/06 06:11:45;;;;;;;5.57;5.13;;;11.80;99.90;;;;;;5075308;28;20233;-87
2022/10/06 06:14:16;;;;;;;6.68;5.82;;;11.90;99.90;;;;;;5075115;28;20277;-87
2022/10/06 06:16:45;;;;;;;6.13;5.53;;;11.90;99.90;;;;;;5074810;28;20225;-87
2022/10/06 06:19:14;;;;;;;7.97;5.88;;;11.90;99.90;;;;;;5074950;28;20239;-87
2022/10/06 06:21:44;;;;;;;6.20;5.60;;;11.90;99.90;;;;;;5075228;28;20201;-88
2022/10/06 06:24:19;;;;;;;8.32;7.07;;;12.10;99.90;;;;;;5075037;28;20227;-89
2022/10/06 06:26:48;;;;;;;6.70;6.10;;;12.10;99.90;;;;;;5074990;28;20229;-87
2022/10/06 06:29:17;;;;;;;11.93;8.15;;;12.20;99.90;;;;;;5074635;28;20295;-87
2022/10/06 06:31:51;;;;;;;6.82;6.10;;;12.20;99.90;;;;;;5074514;28;20205;-87
2022/10/06 06:34:19;;;;;;;9.40;7.25;;;12.30;99.90;;;;;;5074744;28;20211;-88
2022/10/06 06:36:53;;;;;;;7.13;6.35;;;12.40;99.90;;;;;;5074473;28;20316;-88
2022/10/06 06:39:22;;;;;;;7.85;7.05;;;12.50;99.90;;;;;;5074625;28;20215;-87
2022/10/06 06:41:50;;;;;;;9.82;6.70;;;12.60;99.90;;;;;;5074543;28;20213;-87
2022/10/06 06:44:18;;;;;;;8.05;6.45;;;12.70;99.90;;;;;;5074101;28;20209;-87
2022/10/06 06:46:48;;;;;;;8.00;6.82;;;12.70;99.90;;;;;;5074575;28;20300;-87
2022/10/06 06:49:18;;;;;;;8.32;6.88;;;12.70;99.90;;;;;;5074092;28;20211;-87
2022/10/06 06:51:49;;;;;;;7.47;6.53;;;12.80;99.90;;;;;;5074751;28;20201;-87
2022/10/06 06:54:19;;;;;;;11.85;7.55;;;12.80;99.90;;;;;;5073986;28;20221;-87
2022/10/06 06:56:47;;;;;;;7.93;7.13;;;12.80;99.90;;;;;;5073911;28;20237;-87
2022/10/06 06:59:16;;;;;;;7.00;5.65;;;12.80;99.90;;;;;;5074180;28;20204;-87
2022/10/06 07:01:46;;;;;;;7.47;6.68;;;12.90;99.90;;;;;;5074301;28;20264;-88
2022/10/06 07:04:16;;;;;;;14.75;7.82;;;12.80;99.90;;;;;;5074346;28;20197;-87
2022/10/06 07:06:55;;;;;;;11.48;7.32;;;12.90;99.90;;;;;;5073978;28;20229;-87
2022/10/06 07:09:26;;;;;;;12.07;7.75;;;12.90;99.90;;;;;;5073572;28;20201;-88
2022/10/06 07:11:55;;;;;;;7.63;6.90;;;13.00;99.90;;;;;;5073830;28;20215;-87
2022/10/06 07:14:23;;;;;;;7.63;6.93;;;13.00;99.90;;;;;;5073816;28;20221;-88
2022/10/06 07:25:21;;;;;;;6.18;5.53;;;13.40;99.90;;;;;;5074232;28;20217;-87
2022/10/06 07:27:53;;;;;;;5.07;4.57;;;13.40;99.90;;;;;;5074183;28;20426;-88
2022/10/06 07:30:24;;;;;;;4.68;4.28;;;13.50;99.90;;;;;;5073805;28;20207;-87
2022/10/06 07:32:53;;;;;;;5.75;4.45;;;13.60;99.90;;;;;;5073771;28;20312;-88
2022/10/06 07:35:23;;;;;;;5.88;5.28;;;13.80;99.90;;;;;;5073525;28;20201;-87
2022/10/06 07:37:53;;;;;;;5.57;4.35;;;13.90;99.90;;;;;;5073564;28;20220;-87
2022/10/06 07:40:23;;;;;;;6.95;4.30;;;14.00;99.90;;;;;;5073178;28;20209;-87
2022/10/06 07:42:51;;;;;;;4.05;3.65;;;14.20;99.90;;;;;;5073575;28;20201;-87
2022/10/06 07:45:40;;;;;;;3.20;2.80;;;14.30;99.90;;;;;;5073664;28;20205;-87
2022/10/06 07:48:13;;;;;;;3.35;3.05;;;14.50;99.90;;;;;;5073077;28;20225;-88
2022/10/06 07:50:42;;;;;;;3.88;3.47;;;14.80;99.90;;;;;;5072700;28;20208;-87
2022/10/06 07:53:10;;;;;;;4.20;3.58;;;15.00;99.90;;;;;;5072975;28;20227;-87
2022/10/06 07:55:43;;;;;;;3.90;3.60;;;15.20;99.90;;;;;;5073481;28;20215;-87
2022/10/06 07:58:12;;;;;;;3.05;2.75;;;15.50;99.90;;;;;;5073274;28;20237;-88
2022/10/06 08:00:41;;;;;;;2.35;2.10;;;15.70;99.90;;;;;;5072807;28;20209;-88
2022/10/06 08:03:13;;;;;;;3.15;2.42;;;16.00;99.90;;;;;;5072949;28;20212;-88
2022/10/06 08:05:41;;;;;;;2.03;1.83;;;16.30;99.90;;;;;;5072960;28;20217;-87
2022/10/06 08:08:09;;;;;;;2.33;1.92;;;16.60;99.90;;;;;;5072952;28;20221;-88
2022/10/06 08:10:38;;;;;;;1.90;1.73;;;16.90;99.90;;;;;;5073043;28;20205;-88
2022/10/06 08:13:09;;;;;;;1.80;1.70;;;17.10;99.90;;;;;;5072233;28;20217;-88
2022/10/06 08:15:37;;;;;;;3.90;1.90;;;17.40;99.90;;;;;;5072493;28;20204;-88
2022/10/06 08:18:06;;;;;;;1.63;1.52;;;17.70;99.90;;;;;;5072771;28;20224;-88
2022/10/06 08:20:54;;;;;;;1.80;1.70;;;17.90;99.90;;;;;;5073036;28;20216;-87
2022/10/06 08:23:22;;;;;;;1.65;1.55;;;18.10;99.90;;;;;;5072995;28;20203;-88
2022/10/06 08:25:53;;;;;;;1.52;1.42;;;18.30;99.90;;;;;;5073106;28;20213;-88
2022/10/06 08:28:23;;;;;;;4.15;2.00;;;18.40;99.90;;;;;;5072458;28;20233;-87
2022/10/06 08:30:52;;;;;;;1.75;1.65;;;18.60;99.90;;;;;;5072762;28;20205;-87
2022/10/06 08:33:22;;;;;;;1.48;1.38;;;18.80;99.90;;;;;;5072582;28;20221;-88
2022/10/06 08:35:51;;;;;;;1.92;1.83;;;19.00;99.90;;;;;;5072729;28;20208;-88
2022/10/06 08:38:20;;;;;;;3.25;1.88;;;19.30;99.90;;;;;;5072638;28;20232;-87
2022/10/06 08:40:49;;;;;;;1.70;1.60;;;19.50;99.90;;;;;;5072865;28;20232;-88
2022/10/06 08:43:23;;;;;;;1.67;1.58;;;19.70;99.90;;;;;;5072956;28;20203;-88
2022/10/06 08:45:59;;;;;;;1.50;1.40;;;20.00;99.90;;;;;;5072522;28;20204;-89
2022/10/06 08:48:37;;;;;;;1.63;1.45;;;20.30;99.90;;;;;;5072725;28;20304;-88
2022/10/06 08:51:18;;;;;;;1.90;1.80;;;20.40;99.90;;;;;;5072547;28;20208;-88
2022/10/06 08:53:55;;;;;;;1.48;1.38;;;20.60;99.90;;;;;;5072369;28;20221;-87
2022/10/06 08:56:26;;;;;;;1.08;1.08;;;20.90;99.90;;;;;;5072404;28;20239;-87
2022/10/06 08:58:57;;;;;;;1.52;1.45;;;21.30;99.90;;;;;;5072125;28;20205;-87
2022/10/06 09:01:37;;;;;;;2.78;1.58;;;21.80;99.90;;;;;;5072431;28;20202;-88
2022/10/06 09:04:07;;;;;;;1.52;1.42;;;22.40;99.90;;;;;;5072381;28;20200;-89
2022/10/06 09:06:44;;;;;;;1.40;1.35;;;23.10;99.90;;;;;;5072100;28;20217;-88
2022/10/06 09:09:27;;;;;;;1.40;1.30;;;23.40;99.90;;;;;;5072323;28;20197;-87
2022/10/06 09:12:05;;;;;;;1.70;1.42;;;23.80;99.90;;;;;;5072282;28;20212;-86
2022/10/06 09:14:40;;;;;;;1.67;1.58;;;24.10;99.90;;;;;;5072135;28;20220;-87
2022/10/06 09:17:13;;;;;;;1.23;1.20;;;24.00;99.90;;;;;;5072070;28;20228;-87
2022/10/06 09:19:46;;;;;;;1.42;1.33;;;24.20;99.90;;;;;;5072230;28;20205;-88
2022/10/06 09:22:21;;;;;;;3.10;1.33;;;24.40;99.90;;;;;;5072157;28;20205;-87
2022/10/06 09:24:54;;;;;;;1.77;1.67;;;24.60;99.90;;;;;;5073462;28;20208;-87
2022/10/06 09:27:23;;;;;;;1.50;1.40;;;;;;;;;;5076313;28;20231;-88
2022/10/06 09:29:53;;;;;;;2.00;1.80;;;24.70;99.90;;;;;;5076192;28;20212;-87
2022/10/06 09:32:24;;;;;;;1.45;1.35;;;25.20;99.90;;;;;;5076342;28;20201;-88
2022/10/06 09:34:54;;;;;;;1.60;1.50;;;24.80;99.90;;;;;;5075490;28;20227;-88
2022/10/06 09:37:24;;;;;;;1.73;1.52;;;24.70;99.90;;;;;;5075680;28;20225;-86
2022/10/06 09:39:55;;;;;;;1.50;1.40;;;24.50;99.90;;;;;;5075459;28;20236;-86
2022/10/06 09:42:28;;;;;;;1.45;1.35;;;24.40;99.90;;;;;;5076010;28;20209;-86
2022/10/06 09:45:02;;;;;;;2.05;1.65;;;24.50;99.90;;;;;;5076045;28;20202;-87
2022/10/06 09:47:44;;;;;;;11.20;1.98;;;24.30;99.90;;;;;;5075520;28;20243;-87
2022/10/06 09:50:23;;;;;;;3.47;2.10;;;24.30;99.90;;;;;;5075367;28;20302;-86
2022/10/06 09:53:10;;;;;;;1.92;1.75;;;24.30;99.90;;;;;;5075350;28;20219;-87
2022/10/06 09:55:55;;;;;;;1.60;1.50;;;24.30;99.90;;;;;;5075196;28;20221;-87
2022/10/06 09:58:31;;;;;;;1.88;1.65;;;24.30;99.90;;;;;;5075768;28;20232;-86
2022/10/06 10:01:01;;;;;;;1.95;1.65;;;24.30;99.90;;;;;;5075500;28;20227;-86
2022/10/06 10:03:50;;;;;;;1.70;1.60;;;24.30;99.90;;;;;;5075540;28;20313;-87
2022/10/06 10:06:39;;;;;;;1.70;1.40;;;24.20;99.90;;;;;;5074746;28;20267;-87
2022/10/06 10:09:20;;;;;;;2.08;1.80;;;24.30;99.90;;;;;;5074914;28;20240;-87
2022/10/06 10:14:47;;;;;;;1.20;1.20;;;24.80;99.90;;;;;;5074986;28;20224;-87
2022/10/06 10:17:21;;;;;;;1.50;1.40;;;25.00;99.90;;;;;;5074463;28;20229;-87
2022/10/06 10:19:55;;;;;;;2.22;1.92;;;25.20;99.90;;;;;;5075061;28;20299;-87
2022/10/06 10:22:30;;;;;;;1.33;1.30;;;25.60;99.90;;;;;;5074983;28;20209;-88
2022/10/06 10:25:12;;;;;;;2.42;1.50;;;25.90;99.90;;;;;;5074934;28;20208;-88
2022/10/06 10:27:53;;;;;;;1.80;1.70;;;26.30;99.90;;;;;;5075337;28;20245;-87
2022/10/06 10:30:27;;;;;;;1.50;1.40;;;26.80;99.90;;;;;;5074901;28;20201;-87
2022/10/06 10:33:03;;;;;;;2.67;1.90;;;26.90;99.80;;;;;;5074766;28;20224;-87
2022/10/06 10:35:37;;;;;;;1.63;1.52;;;26.80;99.60;;;;;;5073909;28;20228;-87
2022/10/06 10:38:11;;;;;;;3.63;1.95;;;26.80;99.60;;;;;;5074504;28;20311;-87
2022/10/06 10:40:47;;;;;;;2.72;1.67;;;26.90;99.60;;;;;;5074584;28;20235;-87
2022/10/06 10:43:26;;;;;;;2.05;1.95;;;26.90;99.00;;;;;;5074916;28;20205;-88
2022/10/06 10:46:01;;;;;;;2.22;1.98;;;27.00;98.90;;;;;;5074765;28;20208;-88
2022/10/06 10:48:33;;;;;;;1.35;1.33;;;27.30;98.60;;;;;;5074584;28;20216;-87
2022/10/06 10:51:08;;;;;;;7.43;1.77;;;27.40;98.10;;;;;;5074665;28;20212;-87
2022/10/06 10:53:47;;;;;;;1.67;1.58;;;27.40;98.10;;;;;;5074541;28;20288;-87
2022/10/06 10:56:19;;;;;;;3.75;1.75;;;27.50;97.40;;;;;;5074628;28;20231;-87
2022/10/06 10:58:52;;;;;;;1.52;1.42;;;27.40;97.60;;;;;;5076158;28;20211;-87
2022/10/06 11:01:29;;;;;;;2.78;2.08;;;27.30;97.60;;;;;;5076759;28;20213;-87
2022/10/06 11:03:59;;;;;;;1.80;1.70;;;27.10;97.20;;;;;;5076776;28;20227;-86
2022/10/06 11:06:49;;;;;;;1.77;1.67;;;27.00;97.80;;;;;;5075138;28;20224;-87
2022/10/06 11:09:21;;;;;;;1.33;1.30;;;27.20;97.70;;;;;;5074476;28;20204;-87
2022/10/06 11:12:07;;;;;;;3.40;1.83;;;27.60;97.70;;;;;;5074464;28;20223;-87
2022/10/06 11:14:52;;;;;;;2.03;1.85;;;27.80;96.80;;;;;;5074182;28;20233;-87
2022/10/06 11:17:39;;;;;;;3.40;1.90;;;28.10;96.20;;;;;;5073792;28;20233;-88
2022/10/06 11:20:21;;;;;;;2.00;1.90;;;28.10;96.40;;;;;;5073908;28;20201;-87
2022/10/06 11:23:00;;;;;;;1.50;1.40;;;27.70;96.00;;;;;;5074236;28;20212;-87
2022/10/06 11:25:36;;;;;;;18.55;2.13;;;27.50;96.10;;;;;;5074005;28;20216;-87
2022/10/06 11:28:13;;;;;;;1.83;1.70;;;27.30;96.30;;;;;;5073905;28;20228;-87
2022/10/06 11:30:55;;;;;;;1.63;1.52;;;27.00;96.90;;;;;;5073569;28;20201;-88
2022/10/06 11:33:32;;;;;;;3.55;1.70;;;26.70;96.80;;;;;;5073841;28;20232;-87
2022/10/06 11:36:08;;;;;;;3.00;2.00;;;26.70;97.20;;;;;;5073429;28;20231;-87
2022/10/06 11:38:42;;;;;;;1.83;1.73;;;27.10;96.60;;;;;;5073365;28;20211;-88
2022/10/06 11:41:21;;;;;;;1.73;1.60;;;27.00;96.60;;;;;;5073732;28;20206;-88
2022/10/06 11:43:59;;;;;;;1.80;1.70;;;26.30;97.10;;;;;;5073515;28;20208;-87
2022/10/06 11:46:35;;;;;;;3.35;1.30;;;26.50;96.80;;;;;;5073044;28;20225;-88
2022/10/06 11:49:52;;;;;;;2.75;1.90;;;26.40;96.50;;;;;;5073104;28;20243;-88
2022/10/06 11:52:54;;;;;;;2.17;1.98;;;26.40;96.70;;;;;;5038797;28;20209;-88
2022/10/06 11:55:27;;;;;;;1.95;1.85;;;26.00;97.20;;;;;;5072979;28;20459;-88
2022/10/06 11:58:16;;;;;;;2.17;1.60;;;25.90;97.30;;;;;;5073513;28;20229;-88
2022/10/06 12:01:05;;;;;;;1.77;1.67;;;26.60;97.10;;;;;;5073203;28;20212;-87
2022/10/06 12:03:46;;;;;;;2.28;1.77;;;27.30;96.20;;;;;;5072975;28;20218;-87
2022/10/06 12:06:52;;;;;;;4.57;1.55;;;27.50;96.00;;;;;;5072864;28;20205;-87
2022/10/06 12:09:52;;;;;;;1.45;1.35;;;27.00;95.80;;;;;;5072610;28;20207;-87
2022/10/06 12:12:55;;;;;;;1.63;1.52;;;26.60;96.10;;;;;;5073258;28;20204;-88
2022/10/06 12:16:13;;;;;;;1.83;1.73;;;26.40;96.50;;;;;;5010630;28;20223;-89
2022/10/06 12:19:18;;;;;;;2.67;2.05;;;26.00;96.70;;;;;;5072286;28;20205;-88
2022/10/06 12:21:59;;;;;;;1.98;1.63;;;25.80;97.40;;;;;;5072861;28;20215;-88
2022/10/06 12:24:36;;;;;;;3.10;1.95;;;26.00;97.30;;;;;;5072889;28;20282;-89
2022/10/06 12:27:25;;;;;;;5.82;1.92;;;26.20;98.30;;;;;;5072842;28;20228;-88
2022/10/06 12:30:01;;;;;;;2.30;1.88;;;26.30;97.80;;;;;;5072685;28;20236;-88
2022/10/06 12:32:48;;;;;;;2.03;1.65;;;26.60;96.80;;;;;;5073080;28;20204;-88
2022/10/06 12:35:33;;;;;;;3.38;1.60;;;26.80;96.70;;;;;;5072666;28;20216;-87
2022/10/06 12:38:04;;;;;;;8.98;2.45;;;26.80;96.90;;;;;;5072271;28;20225;-88
2022/10/06 12:40:48;;;;;;;7.53;2.13;;;26.60;96.60;;;;;;5072709;28;20209;-88
2022/10/06 12:43:34;;;;;;;3.65;2.08;;;26.80;96.50;;;;;;5072800;28;20200;-88
2022/10/06 12:46:11;;;;;;;1.98;1.70;;;26.90;96.70;;;;;;5072857;28;20209;-89
2022/10/06 12:48:43;;;;;;;1.80;1.70;;;27.10;96.50;;;;;;5072746;28;20213;-90
2022/10/06 12:51:24;;;;;;;2.55;2.10;;;26.90;96.00;;;;;;5072761;28;20212;-89
2022/10/06 12:54:02;;;;;;;3.15;1.52;;;26.70;96.40;;;;;;5072588;28;20209;-89
2022/10/06 12:56:35;;;;;;;2.80;2.00;;;26.60;97.00;;;;;;5072282;28;20229;-88
2022/10/06 12:59:22;;;;;;;2.88;1.95;;;26.70;96.60;;;;;;5074221;28;20209;-88
2022/10/06 13:01:54;;;;;;;2.05;1.80;;;26.90;96.40;;;;;;5076757;28;20204;-89
2022/10/06 13:04:38;;;;;;;2.03;1.92;;;27.00;96.50;;;;;;5076495;28;20213;-88
2022/10/06 13:07:16;;;;;;;4.80;2.33;;;27.10;96.00;;;;;;5076084;28;20311;-88
2022/10/06 13:09:45;;;;;;;2.20;2.00;;;27.00;97.30;;;;;;5075878;28;20204;-87
2022/10/06 13:12:37;;;;;;;3.13;2.03;;;27.20;97.00;;;;;;5076505;28;20205;-87
2022/10/06 13:15:18;;;;;;;2.30;2.05;;;27.70;96.00;;;;;;5072965;28;20229;-90
2022/10/06 13:17:51;;;;;;;2.70;1.75;;;27.80;96.30;;;;;;5076238;28;20231;-88
2022/10/06 13:20:34;;;;;;;2.47;2.28;;;28.00;95.30;;;;;;5075730;28;20209;-89
2022/10/06 13:23:05;;;;;;;3.22;2.00;;;28.00;94.80;;;;;;5076437;28;20209;-89
2022/10/06 13:25:46;;;;;;;1.90;1.80;;;27.60;94.70;;;;;;5075976;28;20302;-88
2022/10/06 13:28:26;;;;;;;2.28;1.90;;;27.10;95.20;;;;;;5076117;28;20233;-88
2022/10/06 13:30:57;;;;;;;2.40;1.65;;;26.80;95.50;;;;;;5076036;28;20313;-89